Search for airport 
image banner adimage banner adimage banner ad
image banner ad

KWBW - Wilkes-Barre Wyoming Valley

Located in Wilkes-Barre, United States

ICAO - WBW, IATA - WBW

Data provided by Airmate  

General information

Coordinates: N41°17'50" W75°51'8"
Elevation is 544 feet MSL.
Magnetic variation is -12° East
View others Airports in Pennsylvania

Operational data

Special qualification required
Current time UTC:
Current local time:
Weather at : KAVP - Wilkes-Barre/Scranton Intl ( 12 km )
METAR: KAVP 091354Z 26003KT 10SM CLR 10/04 A3005 RMK AO2 SLP178 T01000039
TAF: KAVP 091120Z 0912/1012 VRB03KT P6SM BKN200 FM091800 22007KT P6SM OVC025 TEMPO 0918/0919 4SM -RA BR FM091900 21007KT 3SM RA BR OVC015 FM092000 17006KT 3SM SHRA BR OVC010 FM101000 33006KT 6SM BR OVC010
View NOTAMs / SUP AIP / TFR affecting this airport [VIEW]
Communications frequencies: [VIEW]

Runways:

RWY identifierQFULength (ft)Width (ft)SurfaceLDA (ft)
0754°337575ASPH
25234°337575ASPH
0977°2193100OTHER
27257°2193100OTHER

Airport contact information

Address: Wilkes-Barre United States

Other aviation service providers

Flight schools

Valley Aviation, Inc.

Valley Aviation, Inc.
+1(570)288-3257

Satellite view of KWBW